Time;durP1;ratioP1;P1;durP2;ratioP2;P2;SDS_P1;SDS_P2;PMS_P1;PMS_P2;Temp;Humidity;BMP_temperature;BMP_pressure;BME280_temperature;BME280_humidity;BME280_pressure;Samples;Min_cycle;Max_cycle;Signal;HPM_P1;HPM_P2
2022/08/01 00:02:06;;;;;;;5.03;1.33;;;;;;;20.30;59.02;95963.06;4993788;28;25031;-74
2022/08/01 00:04:32;;;;;;;2.00;1.45;;;;;;;20.24;59.54;95961.84;5007809;28;25012;-73
2022/08/01 00:06:59;;;;;;;3.92;1.40;;;;;;;20.12;59.43;95964.88;5002503;28;24448;-73
2022/08/01 00:09:25;;;;;;;2.00;1.30;;;;;;;20.14;59.40;95965.56;5003169;28;24443;-73
2022/08/01 00:11:51;;;;;;;1.45;1.10;;;;;;;20.04;60.15;95955.94;5010893;28;24791;-74
2022/08/01 00:14:19;;;;;;;1.42;1.10;;;;;;;19.97;60.75;95962.75;5002352;28;24492;-73
2022/08/01 00:16:46;;;;;;;1.77;1.40;;;;;;;19.85;60.81;95971.84;4999145;28;24452;-74
2022/08/01 00:19:12;;;;;;;1.40;1.30;;;;;;;19.74;60.98;95964.19;5007510;28;24448;-73
2022/08/01 00:21:39;;;;;;;1.80;1.50;;;;;;;19.69;61.73;95967.25;5001254;28;24986;-73
2022/08/01 00:24:05;;;;;;;6.88;1.45;;;;;;;19.69;61.78;95975.16;5000874;28;24442;-73
2022/08/01 00:26:32;;;;;;;2.50;1.30;;;;;;;19.70;61.82;95979.41;4997842;28;24448;-73
2022/08/01 00:28:58;;;;;;;1.60;1.23;;;;;;;19.70;61.51;95976.78;4998418;28;24866;-73
2022/08/01 00:31:26;;;;;;;1.95;1.40;;;;;;;19.76;61.51;95978.84;5004565;28;24439;-73
2022/08/01 00:33:52;;;;;;;2.30;1.55;;;;;;;19.79;61.39;95972.44;5007503;28;24457;-73
2022/08/01 00:36:19;;;;;;;1.30;1.10;;;;;;;19.86;61.06;95978.75;4998431;28;24444;-72
2022/08/01 00:38:45;;;;;;;2.77;1.67;;;;;;;20.04;60.51;95976.97;4996756;28;24518;-72
2022/08/01 00:41:12;;;;;;;2.65;1.38;;;;;;;20.08;59.75;95977.50;5004103;28;24459;-72
2022/08/01 00:43:38;;;;;;;1.80;1.55;;;;;;;20.21;59.79;95982.38;5003365;28;24471;-71
2022/08/01 00:46:05;;;;;;;3.88;1.50;;;;;;;20.21;59.82;95977.97;4994820;28;24782;-72
2022/08/01 00:48:32;;;;;;;2.00;1.50;;;;;;;20.13;60.50;95982.31;4996353;28;24440;-72
2022/08/01 00:50:59;;;;;;;3.60;1.65;;;;;;;20.06;60.85;95977.66;5000315;28;24819;-72
2022/08/01 00:53:26;;;;;;;1.67;1.30;;;;;;;20.05;60.83;95970.72;5000486;28;25064;-72
2022/08/01 00:55:54;;;;;;;3.40;1.55;;;;;;;20.14;60.85;95981.34;4997472;28;24437;-72
2022/08/01 00:58:20;;;;;;;2.38;1.55;;;;;;;19.90;61.56;95976.66;4990882;28;24495;-72
2022/08/01 01:00:47;;;;;;;1.35;1.25;;;;;;;19.76;62.40;95975.34;5001837;28;24491;-72
2022/08/01 01:03:13;;;;;;;1.92;1.50;;;;;;;19.80;62.33;95974.06;5004185;28;24809;-72
2022/08/01 01:05:49;;;;;;;2.47;1.50;;;;;;;19.79;62.33;95975.88;4998615;28;25056;-72
2022/08/01 01:08:21;;;;;;;2.05;1.52;;;;;;;19.76;62.69;95976.22;4995098;28;24452;-72
2022/08/01 01:10:55;;;;;;;2.25;1.52;;;;;;;19.73;62.90;95975.69;5001659;28;24440;-72
2022/08/01 01:13:29;;;;;;;1.65;1.50;;;;;;;19.69;62.97;95984.81;4999386;28;24689;-72
2022/08/01 01:16:00;;;;;;;2.63;1.42;;;;;;;19.67;62.78;95984.13;4996291;28;24499;-72
2022/08/01 01:18:33;;;;;;;1.90;1.50;;;;;;;19.68;63.08;95989.22;5000456;28;24443;-72
2022/08/01 01:21:14;;;;;;;2.50;1.60;;;;;;;19.56;63.45;95983.31;5002735;28;24440;-72
2022/08/01 01:24:02;;;;;;;1.60;1.40;;;;;;;19.79;63.16;95988.22;5002554;28;24444;-73
2022/08/01 01:26:40;;;;;;;2.53;1.60;;;;;;;19.75;63.56;95989.47;4989907;28;24880;-72
2022/08/01 01:29:14;;;;;;;2.17;1.45;;;;;;;19.57;64.28;95990.22;4995049;28;25005;-72
2022/08/01 01:31:47;;;;;;;2.85;1.67;;;;;;;19.51;64.21;95982.94;5002874;28;24517;-72
2022/08/01 01:34:16;;;;;;;3.20;1.70;;;;;;;19.47;64.36;95978.97;4993500;28;24472;-73
2022/08/01 01:36:44;;;;;;;1.42;1.23;;;;;;;19.49;64.67;95987.50;4996203;28;24440;-72
2022/08/01 01:39:12;;;;;;;2.07;1.67;;;;;;;19.41;65.54;95991.84;4997944;28;24981;-72
2022/08/01 01:41:40;;;;;;;4.10;1.70;;;;;;;19.37;65.68;95991.31;5003216;28;24432;-72
2022/08/01 01:44:10;;;;;;;2.90;1.73;;;;;;;19.41;65.26;95987.41;4999905;28;24508;-72
2022/08/01 01:46:37;;;;;;;2.20;1.50;;;;;;;19.37;65.88;95988.69;4995785;28;24847;-72
2022/08/01 01:49:06;;;;;;;1.92;1.58;;;;;;;19.35;66.16;95987.97;4996066;28;24451;-72
2022/08/01 01:51:33;;;;;;;2.00;1.80;;;;;;;19.24;66.75;95996.03;4993717;28;24471;-72
2022/08/01 01:54:01;;;;;;;2.20;1.65;;;;;;;19.26;66.66;95994.13;5000074;28;24850;-71
2022/08/01 01:56:29;;;;;;;2.15;1.70;;;;;;;19.10;66.93;95986.84;4996659;28;24440;-72
2022/08/01 01:58:59;;;;;;;2.70;1.80;;;;;;;19.17;66.96;95994.97;4996659;28;24440;-72
2022/08/01 02:01:30;;;;;;;2.83;1.75;;;;;;;19.14;67.08;95992.66;5003009;28;24440;-72
2022/08/01 02:03:58;;;;;;;2.80;1.90;;;;;;;18.70;69.11;95998.38;5002839;28;24803;-72
2022/08/01 02:06:27;;;;;;;2.25;1.50;;;;;;;18.74;68.52;95991.91;4997670;28;24440;-72
2022/08/01 02:08:55;;;;;;;2.20;1.83;;;;;;;18.19;71.70;95998.69;4996855;28;24444;-72
2022/08/01 02:11:22;;;;;;;4.85;1.77;;;;;;;18.22;71.79;95998.41;5002397;28;25040;-71
2022/08/01 02:13:53;;;;;;;2.72;1.67;;;;;;;18.39;70.98;95997.72;5000099;28;24460;-72
2022/08/01 02:16:21;;;;;;;2.45;1.92;;;;;;;18.28;71.94;96001.31;4999376;28;24486;-72
2022/08/01 02:18:49;;;;;;;2.58;1.70;;;;;;;18.49;70.85;96000.34;4996366;28;25048;-72
2022/08/01 02:21:24;;;;;;;2.67;1.75;;;;;;;18.42;71.43;95997.44;5002504;28;24490;-71
2022/08/01 02:23:52;;;;;;;2.72;1.73;;;;;;;18.28;72.42;95998.69;5004027;28;24540;-74
2022/08/01 02:26:20;;;;;;;2.05;1.85;;;;;;;18.22;73.36;96004.47;4999585;28;25069;-73
2022/08/01 02:28:50;;;;;;;2.83;1.90;;;;;;;18.45;71.87;95996.34;4996469;28;24513;-74
2022/08/01 02:31:22;;;;;;;5.47;2.00;;;;;;;18.42;70.98;95994.00;5001885;28;24494;-74
2022/08/01 02:33:56;;;;;;;3.90;1.92;;;;;;;18.23;73.24;96005.31;5000564;28;25017;-73
2022/08/01 02:36:26;;;;;;;2.05;1.70;;;;;;;18.44;72.03;95998.13;5001779;28;24981;-73
2022/08/01 02:38:55;;;;;;;2.63;2.00;;;;;;;18.40;72.13;96001.19;5002625;28;24436;-72
2022/08/01 02:41:24;;;;;;;3.78;1.83;;;;;;;18.52;71.62;96000.06;5002017;28;24437;-72
2022/08/01 02:43:53;;;;;;;2.47;1.92;;;;;;;18.58;71.57;96002.97;4997798;28;24445;-72
2022/08/01 02:46:24;;;;;;;1.90;1.70;;;;;;;18.50;72.05;96008.09;4993686;28;24988;-73
2022/08/01 02:48:54;;;;;;;3.65;1.92;;;;;;;18.63;70.55;96002.53;4991464;28;24440;-73
2022/08/01 02:51:23;;;;;;;1.67;1.55;;;;;;;18.50;71.28;96005.47;4995196;28;24520;-73
2022/08/01 02:53:52;;;;;;;2.17;1.47;;;;;;;18.46;71.70;96011.91;4990620;28;24834;-73
2022/08/01 02:56:20;;;;;;;3.83;1.80;;;;;;;18.56;70.67;96006.69;4997381;28;24482;-73
2022/08/01 02:58:48;;;;;;;1.95;1.73;;;;;;;18.33;71.80;96008.78;4992307;28;24445;-73
2022/08/01 03:01:17;;;;;;;2.00;1.80;;;;;;;18.14;72.99;96012.22;4994222;28;24682;-73
2022/08/01 03:03:44;;;;;;;2.33;1.92;;;;;;;18.00;74.02;96010.81;4999344;28;24447;-73
2022/08/01 03:06:13;;;;;;;1.83;1.65;;;;;;;17.80;75.51;96006.53;4991611;28;24436;-72
2022/08/01 03:08:41;;;;;;;3.20;2.10;;;;;;;17.76;74.91;96010.34;4998705;28;24500;-73
2022/08/01 03:11:09;;;;;;;3.90;1.95;;;;;;;17.72;75.98;96006.31;5000439;28;24443;-73
2022/08/01 03:13:36;;;;;;;3.70;2.10;;;;;;;17.75;75.89;96003.41;4998163;28;25029;-73
2022/08/01 03:16:05;;;;;;;2.50;2.00;;;;;;;17.80;75.59;96003.91;5002521;28;24490;-73
2022/08/01 03:18:33;;;;;;;2.85;2.08;;;;;;;17.82;75.63;96009.81;5002960;28;24803;-73
2022/08/01 03:21:01;;;;;;;2.47;1.80;;;;;;;17.57;76.57;96011.09;5005680;28;24456;-73
2022/08/01 03:23:32;;;;;;;3.22;2.00;;;;;;;17.64;77.06;96012.22;4996666;28;24440;-73
2022/08/01 03:25:59;;;;;;;2.20;1.87;;;;;;;17.76;76.46;96013.81;4990182;28;24429;-73
2022/08/01 03:28:27;;;;;;;3.30;2.38;;;;;;;17.56;77.99;96017.28;4991603;28;24437;-73
2022/08/01 03:30:54;;;;;;;2.13;1.90;;;;;;;17.67;77.33;96011.94;5000579;28;24459;-72
2022/08/01 03:33:21;;;;;;;4.65;1.85;;;;;;;17.81;76.63;96006.38;5002212;28;24443;-73
2022/08/01 03:35:53;;;;;;;3.65;2.00;;;;;;;17.84;76.24;96010.53;5008124;28;24452;-72
2022/08/01 03:38:24;;;;;;;1.98;1.77;;;;;;;17.83;76.43;96011.47;4995925;28;24444;-73
2022/08/01 03:40:54;;;;;;;4.00;1.73;;;;;;;17.76;76.45;96007.72;5000147;28;24530;-73
2022/08/01 03:43:28;;;;;;;2.80;1.98;;;;;;;17.49;78.51;96006.53;5000183;28;24443;-73
2022/08/01 03:45:59;;;;;;;2.47;2.00;;;;;;;17.62;78.02;96011.53;5005845;28;24456;-73
2022/08/01 03:48:29;;;;;;;2.55;1.88;;;;;;;17.71;77.43;96017.75;4999556;28;24442;-73
2022/08/01 03:50:58;;;;;;;1.90;1.70;;;;;;;17.76;77.33;96013.81;4997169;28;24429;-73
2022/08/01 03:53:29;;;;;;;1.70;1.60;;;;;;;17.67;77.88;96009.34;4998253;28;24436;-73
2022/08/01 03:55:59;;;;;;;2.13;1.92;;;;;;;17.80;77.19;96014.38;5013165;28;24455;-73
2022/08/01 03:58:26;;;;;;;2.78;1.83;;;;;;;17.79;76.87;96016.13;4998688;28;24445;-73
2022/08/01 04:00:54;;;;;;;2.92;2.17;;;;;;;17.80;76.43;96011.75;5005159;28;24441;-73
2022/08/01 04:03:21;;;;;;;2.07;1.70;;;;;;;17.76;77.10;96013.81;5005949;28;24441;-72
2022/08/01 04:05:47;;;;;;;1.90;1.70;;;;;;;17.80;76.67;96017.00;5000714;28;24469;-73
2022/08/01 04:08:14;;;;;;;2.73;2.17;;;;;;;17.90;75.47;96009.97;5009347;28;24990;-73
2022/08/01 04:10:40;;;;;;;3.97;1.92;;;;;;;17.95;75.06;96014.78;5001811;28;24463;-73
2022/08/01 04:13:08;;;;;;;2.83;1.77;;;;;;;17.59;76.46;96012.63;4994064;28;24479;-73
2022/08/01 04:15:35;;;;;;;2.15;1.70;;;;;;;17.29;77.82;96012.66;4989542;28;24475;-76
2022/08/01 04:18:01;;;;;;;1.80;1.58;;;;;;;17.25;77.79;96004.25;5000117;28;24977;-75
2022/08/01 04:20:28;;;;;;;2.22;2.03;;;;;;;17.37;77.54;96007.59;5000356;28;24436;-74
2022/08/01 04:22:55;;;;;;;2.40;2.05;;;;;;;17.06;80.63;96002.38;5003298;28;24608;-77
2022/08/01 04:25:26;;;;;;;2.97;2.30;;;;;;;17.00;80.73;96002.88;4996932;28;24524;-76
2022/08/01 04:27:55;;;;;;;4.43;2.33;;;;;;;17.02;81.23;96008.81;5005540;28;24528;-73
2022/08/01 04:30:26;;;;;;;3.10;2.30;;;;;;;17.14;81.09;96013.00;4999333;28;24495;-72
2022/08/01 04:32:56;;;;;;;3.28;1.95;;;;;;;17.24;80.95;96012.22;5003786;28;24962;-73
2022/08/01 04:35:22;;;;;;;2.67;2.03;;;;;;;17.31;80.97;96024.63;4988710;28;24842;-73
2022/08/01 04:37:50;;;;;;;2.30;1.90;;;;;;;17.42;80.68;96026.34;4990105;28;24437;-73
2022/08/01 04:40:18;;;;;;;2.40;1.70;;;;;;;17.52;79.82;96029.00;4990070;28;24548;-73
2022/08/01 04:42:45;;;;;;;3.95;2.13;;;;;;;17.47;80.13;96026.78;4994389;28;24433;-74
2022/08/01 04:45:12;;;;;;;3.10;2.00;;;;;;;17.54;78.99;96024.44;4995586;28;24521;-73
2022/08/01 04:47:41;;;;;;;2.80;2.45;;;;;;;17.54;78.85;96022.69;4995237;28;24444;-73
2022/08/01 04:50:09;;;;;;;3.13;2.25;;;;;;;17.32;80.64;96022.88;4994128;28;24441;-71
2022/08/01 04:52:37;;;;;;;3.42;2.30;;;;;;;17.27;81.45;96023.25;4993358;28;25002;-76
2022/08/01 04:55:05;;;;;;;3.60;2.50;;;;;;;17.32;81.90;96025.50;4996081;28;24468;-76
2022/08/01 04:57:32;;;;;;;2.40;2.20;;;;;;;17.20;83.33;96021.28;5003617;28;25183;-75
2022/08/01 04:59:59;;;;;;;2.57;2.30;;;;;;;17.26;83.48;96024.22;4998112;28;24444;-75
2022/08/01 05:02:28;;;;;;;3.15;2.22;;;;;;;17.37;82.43;96028.53;4989753;28;24987;-74
2022/08/01 05:04:56;;;;;;;3.17;2.30;;;;;;;17.45;81.95;96022.63;5002544;28;24445;-75
2022/08/01 05:07:23;;;;;;;3.90;2.40;;;;;;;17.55;81.62;96019.09;5003872;28;24482;-74
2022/08/01 05:09:50;;;;;;;5.43;2.45;;;;;;;17.67;81.51;96017.19;4999627;28;24436;-74
2022/08/01 05:12:17;;;;;;;2.40;2.05;;;;;;;17.79;80.71;96016.13;4993659;28;24753;-75
2022/08/01 05:14:43;;;;;;;2.58;2.20;;;;;;;17.75;80.70;96019.13;5001797;28;24970;-75
2022/08/01 05:17:10;;;;;;;3.35;2.25;;;;;;;17.59;81.53;96017.88;4995151;28;24444;-75
2022/08/01 05:19:39;;;;;;;3.22;2.38;;;;;;;17.54;82.38;96017.44;4999533;28;24524;-74
2022/08/01 05:22:08;;;;;;;3.10;2.20;;;;;;;17.66;82.25;96019.00;4993609;28;24444;-74
2022/08/01 05:24:36;;;;;;;3.53;2.72;;;;;;;17.90;81.49;96016.03;4999848;28;24444;-74
2022/08/01 05:27:04;;;;;;;4.80;2.20;;;;;;;17.96;81.35;96017.28;4988848;28;24787;-73
2022/08/01 05:29:31;;;;;;;5.05;2.28;;;;;;;17.95;82.16;96020.03;4999723;28;24444;-73
2022/08/01 05:31:58;;;;;;;4.60;2.42;;;;;;;18.13;80.90;96028.88;4995911;28;24993;-67
2022/08/01 05:34:25;;;;;;;2.40;2.13;;;;;;;18.07;80.96;96022.41;4996003;28;24461;-73
2022/08/01 05:36:52;;;;;;;2.22;2.03;;;;;;;18.18;80.03;96021.47;5001358;28;24444;-73
2022/08/01 05:39:20;;;;;;;3.33;2.42;;;;;;;18.28;80.12;96019.69;5000167;28;24432;-73
2022/08/01 05:41:46;;;;;;;2.63;2.30;;;;;;;18.52;78.87;96014.00;4994119;28;24440;-75
2022/08/01 05:44:12;;;;;;;3.95;2.75;;;;;;;18.63;78.53;96016.47;5000256;28;24452;-75
2022/08/01 05:46:39;;;;;;;2.63;2.43;;;;;;;18.74;78.33;96015.53;4994562;28;24441;-75
2022/08/01 05:49:06;;;;;;;5.85;2.67;;;;;;;18.73;78.28;96015.69;4999513;28;24830;-76
2022/08/01 05:51:33;;;;;;;3.77;2.33;;;;;;;18.84;77.44;96010.28;4995633;28;25024;-76
2022/08/01 05:54:00;;;;;;;5.57;2.97;;;;;;;18.76;78.03;96016.22;4996162;28;24436;-76
2022/08/01 05:56:28;;;;;;;4.05;2.50;;;;;;;19.03;77.17;96012.84;4999789;28;24461;-75
2022/08/01 05:58:54;;;;;;;6.70;2.90;;;;;;;19.28;76.27;96014.03;5000660;28;24965;-75
2022/08/01 06:01:21;;;;;;;6.65;2.70;;;;;;;19.31;76.13;96015.50;4997347;28;24432;-76
2022/08/01 06:03:47;;;;;;;2.92;2.65;;;;;;;19.39;75.91;96023.50;5001729;28;24444;-76
2022/08/01 06:06:14;;;;;;;4.60;3.00;;;;;;;19.72;74.45;96018.66;5002518;28;24474;-77
2022/08/01 06:08:41;;;;;;;4.43;2.70;;;;;;;19.74;74.13;96020.19;5002243;28;24519;-77
2022/08/01 06:11:07;;;;;;;2.50;2.30;;;;;;;20.08;74.23;96018.75;5009321;28;25032;-79
2022/08/01 06:13:35;;;;;;;2.67;2.45;;;;;;;20.17;72.20;96020.47;5005307;28;24470;-76
2022/08/01 06:16:02;;;;;;;4.00;2.40;;;;;;;20.20;72.30;96012.28;5003066;28;24518;-77
2022/08/01 06:18:28;;;;;;;5.53;2.67;;;;;;;20.19;72.84;96021.16;5003292;28;24838;-75
2022/08/01 06:20:55;;;;;;;2.95;2.65;;;;;;;20.25;72.87;96023.19;5002568;28;24997;-76
2022/08/01 06:23:21;;;;;;;2.90;2.10;;;;;;;20.22;73.27;96016.44;5004204;28;24977;-77
2022/08/01 06:25:48;;;;;;;4.57;2.50;;;;;;;20.41;72.36;96014.63;5003997;28;24440;-77
2022/08/01 06:28:14;;;;;;;3.45;2.45;;;;;;;20.44;72.71;96016.97;5004303;28;24527;-78
2022/08/01 06:30:42;;;;;;;2.47;2.17;;;;;;;20.77;72.38;96012.81;5002875;28;24506;-76
2022/08/01 06:33:08;;;;;;;2.93;2.20;;;;;;;21.20;71.25;96016.38;4997274;28;24538;-76
2022/08/01 06:35:35;;;;;;;5.95;2.90;;;;;;;21.37;68.89;96020.78;4988070;28;24866;-75
2022/08/01 06:38:02;;;;;;;2.50;1.98;;;;;;;21.65;68.81;96017.94;4982816;28;24491;-74
2022/08/01 06:40:29;;;;;;;2.03;1.83;;;;;;;21.78;67.82;96020.97;4991090;28;24444;-74
2022/08/01 06:42:56;;;;;;;3.35;2.03;;;;;;;21.95;67.42;96029.75;4999216;28;24849;-74
2022/08/01 06:45:24;;;;;;;3.67;2.10;;;;;;;22.07;66.55;96019.75;5003451;28;24441;-74
2022/08/01 06:47:52;;;;;;;3.55;1.90;;;;;;;22.02;66.86;96024.66;4993275;28;24799;-75
2022/08/01 06:50:19;;;;;;;3.28;1.80;;;;;;;22.11;66.54;96024.53;4998552;28;25011;-75
2022/08/01 06:52:45;;;;;;;5.18;1.70;;;;;;;22.15;66.78;96019.78;5003304;28;25215;-73
2022/08/01 06:55:12;;;;;;;1.80;1.52;;;;;;;22.41;65.45;96020.47;4995341;28;24464;-74
2022/08/01 06:57:46;;;;;;;1.92;1.40;;;;;;;22.56;65.77;96020.66;5001670;28;24439;-75
2022/08/01 07:00:15;;;;;;;2.90;1.58;;;;;;;22.89;64.20;96029.41;4993071;28;24872;-74
2022/08/01 07:02:42;;;;;;;3.28;1.58;;;;;;;22.54;65.80;96027.09;4999380;28;24433;-75
2022/08/01 07:05:10;;;;;;;1.73;1.42;;;;;;;22.62;64.19;96030.56;4999585;28;24440;-75
2022/08/01 07:07:37;;;;;;;2.03;1.48;;;;;;;22.53;65.72;96022.81;4994272;28;24998;-75
2022/08/01 07:10:04;;;;;;;2.20;1.23;;;;;;;23.10;64.18;96022.78;4998532;28;24459;-74
2022/08/01 07:12:32;;;;;;;2.43;1.53;;;;;;;23.13;63.03;96022.47;4996391;28;24437;-74
2022/08/01 07:14:59;;;;;;;2.03;1.50;;;;;;;23.19;63.11;96016.50;4996127;28;24460;-74
2022/08/01 07:17:25;;;;;;;5.20;1.33;;;;;;;23.13;62.61;96019.81;5001116;28;24861;-74
2022/08/01 07:19:53;;;;;;;2.10;1.33;;;;;;;22.71;64.46;96020.81;4997454;28;24445;-74
2022/08/01 07:22:21;;;;;;;2.70;1.27;;;;;;;22.79;64.79;96026.09;4996718;28;24488;-74
2022/08/01 07:24:48;;;;;;;2.47;1.48;;;;;;;23.13;65.01;96022.47;4994780;28;24539;-74
2022/08/01 07:27:14;;;;;;;2.10;1.40;;;;;;;23.37;64.12;96019.78;5001551;28;24504;-75
2022/08/01 07:29:40;;;;;;;2.50;1.40;;;;;;;23.73;61.88;96018.50;4998927;28;24882;-75
2022/08/01 07:32:07;;;;;;;1.77;1.58;;;;;;;23.84;62.24;96020.78;4996881;28;24436;-75
2022/08/01 07:34:33;;;;;;;1.40;1.30;;;;;;;23.80;62.41;96020.28;4993840;28;24448;-75
2022/08/01 07:37:00;;;;;;;2.28;1.23;;;;;;;24.13;60.26;96020.13;4997704;28;24482;-75
2022/08/01 07:39:28;;;;;;;5.85;1.75;;;;;;;23.82;61.71;96020.97;4995101;28;24459;-75
2022/08/01 07:41:54;;;;;;;1.88;1.58;;;;;;;23.94;60.50;96013.47;4993246;28;24831;-74
2022/08/01 07:44:20;;;;;;;3.08;1.63;;;;;;;24.15;59.95;96018.97;4988472;28;25016;-76
2022/08/01 07:46:47;;;;;;;2.40;1.55;;;;;;;24.41;59.41;96007.25;4990829;28;24452;-74
2022/08/01 07:49:13;;;;;;;1.52;1.40;;;;;;;24.85;59.83;96006.59;4993321;28;24496;-74
2022/08/01 07:51:40;;;;;;;2.08;1.50;;;;;;;25.20;56.97;96005.09;4987074;28;24445;-74
2022/08/01 07:54:07;;;;;;;2.13;1.70;;;;;;;25.25;55.17;96005.41;4992991;28;24445;-74
2022/08/01 07:56:35;;;;;;;2.45;1.45;;;;;;;25.41;55.85;96000.94;5005569;28;24452;-74
2022/08/01 07:59:01;;;;;;;1.92;1.48;;;;;;;25.41;57.38;96004.41;5002911;28;24439;-74
2022/08/01 08:01:28;;;;;;;2.40;1.60;;;;;;;25.10;55.71;96001.88;5008417;28;24436;-73
2022/08/01 08:03:54;;;;;;;3.00;1.60;;;;;;;24.65;57.05;95998.28;5000315;28;24524;-73
2022/08/01 08:06:21;;;;;;;2.70;1.75;;;;;;;24.13;58.74;96005.06;4998929;28;24444;-73
2022/08/01 08:08:47;;;;;;;1.98;1.67;;;;;;;24.06;59.06;96005.94;4998853;28;25029;-72
2022/08/01 08:11:14;;;;;;;2.50;1.75;;;;;;;24.19;58.88;96000.91;5002752;28;24436;-72
2022/08/01 08:13:42;;;;;;;7.72;2.03;;;;;;;24.14;59.00;96004.09;4998817;28;24459;-73
2022/08/01 08:16:08;;;;;;;7.13;1.92;;;;;;;24.14;59.81;96000.63;5000577;28;24452;-73
2022/08/01 08:18:35;;;;;;;3.60;1.60;;;;;;;24.05;59.39;95999.03;4997978;28;24802;-72
2022/08/01 08:21:01;;;;;;;4.63;1.70;;;;;;;23.83;60.19;95996.16;5004769;28;24439;-73
2022/08/01 08:26:12;;;;;;;2.25;1.88;;;;;;;24.09;59.15;95998.50;4995040;28;24444;-74
2022/08/01 08:28:38;;;;;;;1.80;1.60;;;;;;;24.29;59.43;95974.25;4993264;28;25044;-73
2022/08/01 08:31:06;;;;;;;2.00;1.80;;;;;;;23.83;60.15;95984.75;5008857;28;24436;-74
2022/08/01 08:33:32;;;;;;;7.85;1.92;;;;;;;23.70;61.19;95981.84;5002381;28;24435;-73
2022/08/01 08:35:59;;;;;;;3.40;1.90;;;;;;;23.69;60.63;95993.41;5001780;28;24453;-74
2022/08/01 08:38:27;;;;;;;2.33;1.83;;;;;;;24.20;59.41;95993.81;5005203;28;24443;-74
2022/08/01 08:40:53;;;;;;;3.63;2.13;;;;;;;23.80;59.01;95983.28;4999922;28;24989;-74
2022/08/01 08:43:21;;;;;;;2.10;1.80;;;;;;;23.59;57.89;95983.84;5001618;28;24444;-75
2022/08/01 08:45:47;;;;;;;2.63;2.00;;;;;;;24.18;57.05;95985.19;5006512;28;25012;-73
2022/08/01 08:48:16;;;;;;;2.90;2.30;;;;;;;25.03;54.95;95977.94;5004883;28;24487;-73
2022/08/01 08:50:43;;;;;;;3.33;2.03;;;;;;;25.27;53.63;95981.34;5001307;28;24444;-73
2022/08/01 08:53:11;;;;;;;2.53;2.05;;;;;;;25.45;53.26;95983.66;5003821;28;24443;-73
2022/08/01 08:55:38;;;;;;;2.97;2.00;;;;;;;24.98;54.29;95974.97;4994299;28;24516;-73
2022/08/01 08:58:05;;;;;;;2.42;1.95;;;;;;;24.72;55.20;95983.34;4993168;28;24535;-72
2022/08/01 09:00:32;;;;;;;2.17;1.90;;;;;;;24.64;55.79;95988.72;4993663;28;24963;-73
2022/08/01 09:02:59;;;;;;;3.40;2.08;;;;;;;24.40;56.06;95979.16;4993040;28;24986;-71
2022/08/01 09:05:27;;;;;;;1.93;1.73;;;;;;;24.38;55.96;95986.41;4992743;28;25454;-73
2022/08/01 09:07:54;;;;;;;2.47;2.20;;;;;;;24.47;55.42;95987.19;4993514;28;24668;-73
2022/08/01 09:10:21;;;;;;;4.22;2.00;;;;;;;24.58;54.30;95984.97;4992832;28;24500;-71
2022/08/01 09:13:03;;;;;;;2.47;1.90;;;;;;;24.55;54.76;95987.16;4994720;28;24503;-71
2022/08/01 09:15:39;;;;;;;2.35;1.95;;;;;;;24.50;55.49;95989.47;4992962;28;24604;-71
2022/08/01 09:18:06;;;;;;;1.87;1.50;;;;;;;24.11;53.30;95988.56;4993635;28;24889;-71
2022/08/01 09:20:35;;;;;;;3.80;1.92;;;;;;;24.10;54.91;95986.09;5001085;28;24467;-71
2022/08/01 09:23:02;;;;;;;4.00;1.65;;;;;;;24.23;54.66;95988.97;5000785;28;24440;-71
2022/08/01 09:25:32;;;;;;;3.40;1.70;;;;;;;24.26;54.55;95993.13;4999477;28;24472;-72
2022/08/01 09:28:05;;;;;;;2.38;1.63;;;;;;;24.34;54.59;95993.88;4998962;28;24451;-72
2022/08/01 09:30:38;;;;;;;3.15;1.80;;;;;;;24.79;53.23;95994.03;5004479;28;24447;-72
2022/08/01 09:33:04;;;;;;;3.70;1.92;;;;;;;25.17;53.37;95999.34;4991545;28;24536;-72
2022/08/01 09:35:35;;;;;;;4.05;1.75;;;;;;;24.87;52.45;96001.91;4994597;28;24452;-74
2022/08/01 09:38:16;;;;;;;2.30;1.65;;;;;;;24.63;53.79;95997.66;4999680;28;24446;-74
2022/08/01 09:40:51;;;;;;;2.88;1.60;;;;;;;24.39;53.91;95994.19;4993269;28;24451;-74
2022/08/01 09:43:19;;;;;;;3.33;2.10;;;;;;;24.25;54.60;95999.38;4999681;28;25013;-74
2022/08/01 09:45:45;;;;;;;1.98;1.77;;;;;;;24.42;54.19;96002.78;5000423;28;24444;-74
2022/08/01 09:48:12;;;;;;;2.67;2.10;;;;;;;24.42;53.72;96002.78;4989953;28;24441;-75
2022/08/01 09:50:41;;;;;;;1.80;1.65;;;;;;;24.89;52.54;96002.56;4983197;28;24797;-74
2022/08/01 09:53:08;;;;;;;3.50;2.10;;;;;;;24.97;53.48;95996.38;4990313;28;25010;-75
2022/08/01 09:55:36;;;;;;;1.93;1.60;;;;;;;25.19;52.21;95992.88;4989626;28;24440;-75
2022/08/01 09:58:04;;;;;;;1.77;1.67;;;;;;;25.07;52.60;95997.75;4994707;28;24432;-75
2022/08/01 10:00:30;;;;;;;2.28;1.80;;;;;;;25.42;51.97;96002.56;4996314;28;24504;-75
2022/08/01 10:02:57;;;;;;;3.87;2.00;;;;;;;25.64;51.65;95998.16;4991721;28;24433;-74
2022/08/01 10:05:31;;;;;;;2.67;1.80;;;;;;;25.89;48.61;95993.41;4998444;28;24982;-75
2022/08/01 10:07:59;;;;;;;2.30;1.65;;;;;;;25.87;49.02;95984.81;5000857;28;24495;-72
2022/08/01 10:10:26;;;;;;;1.75;1.63;;;;;;;25.55;50.05;95990.31;4999540;28;24439;-71
2022/08/01 10:12:56;;;;;;;2.00;1.80;;;;;;;25.39;50.46;95987.84;4984990;28;24448;-71
2022/08/01 10:15:24;;;;;;;4.90;1.92;;;;;;;25.74;49.90;95986.28;5000645;28;24441;-70
2022/08/01 10:17:55;;;;;;;2.53;2.03;;;;;;;25.93;48.62;95984.06;5005667;28;24452;-72
2022/08/01 10:20:24;;;;;;;1.90;1.80;;;;;;;25.86;48.41;95984.00;4999234;28;24509;-71
2022/08/01 10:22:54;;;;;;;2.58;1.95;;;;;;;26.13;48.31;95981.63;4999517;28;24839;-72
2022/08/01 10:25:22;;;;;;;3.65;1.92;;;;;;;26.04;48.40;95976.44;5004357;28;24443;-71
2022/08/01 10:27:51;;;;;;;2.03;1.75;;;;;;;26.27;48.02;95981.56;5005469;28;24857;-73
2022/08/01 10:30:19;;;;;;;2.83;1.83;;;;;;;25.67;49.05;95972.09;4991850;28;24443;-73
2022/08/01 10:32:46;;;;;;;2.10;1.73;;;;;;;25.65;49.36;95975.94;4990994;28;24858;-71
2022/08/01 10:35:16;;;;;;;3.38;2.00;;;;;;;25.38;48.77;95972.13;4991318;28;24441;-71
2022/08/01 10:37:45;;;;;;;2.38;1.60;;;;;;;25.18;49.86;95964.72;4997663;28;24544;-71
2022/08/01 10:40:13;;;;;;;2.88;1.92;;;;;;;25.42;49.24;95971.56;4994055;28;24441;-71
2022/08/01 10:42:42;;;;;;;2.35;1.90;;;;;;;25.19;50.17;95969.00;4999318;28;21308;-72
2022/08/01 10:45:10;;;;;;;2.10;1.63;;;;;;;25.46;48.18;95972.03;4995750;28;24444;-71
2022/08/01 10:47:43;;;;;;;2.30;1.63;;;;;;;26.04;47.51;95980.94;4997043;28;24456;-71
2022/08/01 10:50:18;;;;;;;3.92;2.05;;;;;;;26.21;46.24;95958.44;4992212;28;24969;-71
2022/08/01 10:53:13;;;;;;;2.17;1.83;;;;;;;26.69;44.39;95958.69;4994105;28;25006;-74
2022/08/01 10:55:47;;;;;;;2.00;1.50;;;;;;;26.96;44.74;95958.91;5001871;28;25064;-72
2022/08/01 10:58:14;;;;;;;4.90;1.63;;;;;;;26.11;46.43;95971.22;4996722;28;24440;-71
2022/08/01 11:00:40;;;;;;;3.20;1.90;;;;;;;25.84;47.05;95964.75;4998134;28;24831;-72
2022/08/01 11:03:08;;;;;;;2.40;1.52;;;;;;;26.01;47.44;95966.19;4993794;28;24838;-71
2022/08/01 11:05:36;;;;;;;2.58;1.88;;;;;;;25.69;47.06;95969.25;4999746;28;24444;-76
2022/08/01 11:08:09;;;;;;;2.75;1.80;;;;;;;25.57;47.74;95964.41;5004640;28;24464;-72
2022/08/01 11:10:40;;;;;;;2.65;1.60;;;;;;;25.51;47.25;95966.97;4997991;28;24437;-72
2022/08/01 11:13:08;;;;;;;2.03;1.63;;;;;;;25.53;47.00;95972.94;4993234;28;24463;-73
2022/08/01 11:15:35;;;;;;;2.53;1.55;;;;;;;25.52;47.18;95960.69;4999343;28;24520;-73
2022/08/01 11:18:03;;;;;;;2.63;1.80;;;;;;;26.21;46.36;95955.78;5005542;28;24457;-74
2022/08/01 11:20:33;;;;;;;2.40;1.40;;;;;;;26.58;44.05;95945.09;4998179;28;24463;-73
2022/08/01 11:23:25;;;;;;;2.50;1.35;;;;;;;26.54;44.33;95942.00;4992826;28;24464;-73
2022/08/01 11:26:08;;;;;;;1.92;1.30;;;;;;;26.49;44.19;95947.09;4998051;28;24441;-71
2022/08/01 11:28:34;;;;;;;2.00;1.38;;;;;;;26.49;44.30;95942.59;4999413;28;25047;-72
2022/08/01 11:31:29;;;;;;;3.03;1.50;;;;;;;26.93;43.46;95938.84;4998003;28;24441;-72
2022/08/01 11:33:55;;;;;;;1.50;1.23;;;;;;;26.58;42.52;95939.78;5002137;28;24449;-71
2022/08/01 11:36:23;;;;;;;2.92;1.15;;;;;;;26.15;43.82;95945.09;5001439;28;24814;-70
2022/08/01 11:39:06;;;;;;;1.95;1.27;;;;;;;26.26;43.89;95937.47;4999607;28;24449;-74
2022/08/01 11:41:33;;;;;;;2.50;1.57;;;;;;;26.64;43.65;95934.53;4992129;28;24440;-72
2022/08/01 11:44:02;;;;;;;2.97;1.30;;;;;;;26.96;42.48;95927.03;4999072;28;24451;-74